sensor_id;sensor_type;location;lat;lon;timestamp;temperature;humidity
15596;DHT22;7898;48.658;9.068;2023-04-27T00:01:20;7.00;99.90
15596;DHT22;7898;48.658;9.068;2023-04-27T00:03:47;7.10;99.90
15596;DHT22;7898;48.658;9.068;2023-04-27T00:06:15;6.90;99.90
15596;DHT22;7898;48.658;9.068;2023-04-27T00:08:42;6.80;99.90
15596;DHT22;7898;48.658;9.068;2023-04-27T00:11:10;6.80;99.90
15596;DHT22;7898;48.658;9.068;2023-04-27T00:13:37;6.80;99.90
15596;DHT22;7898;48.658;9.068;2023-04-27T00:16:05;6.80;99.90
15596;DHT22;7898;48.658;9.068;2023-04-27T00:18:32;6.70;99.90
15596;DHT22;7898;48.658;9.068;2023-04-27T00:20:58;6.70;99.90
15596;DHT22;7898;48.658;9.068;2023-04-27T00:23:25;6.70;99.90
15596;DHT22;7898;48.658;9.068;2023-04-27T00:25:52;6.70;99.90
15596;DHT22;7898;48.658;9.068;2023-04-27T00:28:20;6.60;99.90
15596;DHT22;7898;48.658;9.068;2023-04-27T00:30:47;6.60;99.90
15596;DHT22;7898;48.658;9.068;2023-04-27T00:33:16;6.60;99.90
15596;DHT22;7898;48.658;9.068;2023-04-27T00:35:43;6.50;99.90
15596;DHT22;7898;48.658;9.068;2023-04-27T00:38:10;6.50;99.90
15596;DHT22;7898;48.658;9.068;2023-04-27T00:40:37;6.50;99.90
15596;DHT22;7898;48.658;9.068;2023-04-27T00:43:04;6.50;99.90
15596;DHT22;7898;48.658;9.068;2023-04-27T00:45:36;6.50;99.90
15596;DHT22;7898;48.658;9.068;2023-04-27T00:48:04;6.40;99.90
15596;DHT22;7898;48.658;9.068;2023-04-27T00:50:31;6.40;99.90
15596;DHT22;7898;48.658;9.068;2023-04-27T00:52:59;6.40;99.90
15596;DHT22;7898;48.658;9.068;2023-04-27T00:55:26;6.50;99.90
15596;DHT22;7898;48.658;9.068;2023-04-27T00:57:53;6.50;99.90
15596;DHT22;7898;48.658;9.068;2023-04-27T01:00:19;6.40;99.90
15596;DHT22;7898;48.658;9.068;2023-04-27T01:02:48;6.40;99.90
15596;DHT22;7898;48.658;9.068;2023-04-27T01:05:16;6.30;99.90
15596;DHT22;7898;48.658;9.068;2023-04-27T01:07:42;6.20;99.90
15596;DHT22;7898;48.658;9.068;2023-04-27T01:10:09;6.20;99.90
15596;DHT22;7898;48.658;9.068;2023-04-27T01:12:36;6.20;99.90
15596;DHT22;7898;48.658;9.068;2023-04-27T01:15:05;6.10;99.90
15596;DHT22;7898;48.658;9.068;2023-04-27T01:17:32;6.20;99.90
15596;DHT22;7898;48.658;9.068;2023-04-27T01:20:00;6.10;99.90
15596;DHT22;7898;48.658;9.068;2023-04-27T01:22:27;6.20;99.90
15596;DHT22;7898;48.658;9.068;2023-04-27T01:24:55;6.10;99.90
15596;DHT22;7898;48.658;9.068;2023-04-27T01:27:23;6.20;99.90
15596;DHT22;7898;48.658;9.068;2023-04-27T01:29:50;6.10;99.90
15596;DHT22;7898;48.658;9.068;2023-04-27T01:32:17;6.20;99.90
15596;DHT22;7898;48.658;9.068;2023-04-27T01:34:44;6.30;99.90
15596;DHT22;7898;48.658;9.068;2023-04-27T01:37:10;6.30;99.90
15596;DHT22;7898;48.658;9.068;2023-04-27T01:39:38;6.20;99.90
15596;DHT22;7898;48.658;9.068;2023-04-27T01:42:06;6.20;99.90
15596;DHT22;7898;48.658;9.068;2023-04-27T01:44:33;6.20;99.90
15596;DHT22;7898;48.658;9.068;2023-04-27T01:47:00;6.20;99.90
15596;DHT22;7898;48.658;9.068;2023-04-27T01:49:27;6.20;99.90
15596;DHT22;7898;48.658;9.068;2023-04-27T01:51:54;6.10;99.90
15596;DHT22;7898;48.658;9.068;2023-04-27T01:54:21;6.10;99.90
15596;DHT22;7898;48.658;9.068;2023-04-27T01:56:48;6.10;99.90
15596;DHT22;7898;48.658;9.068;2023-04-27T01:59:16;6.00;99.90
15596;DHT22;7898;48.658;9.068;2023-04-27T02:01:43;6.00;99.90
15596;DHT22;7898;48.658;9.068;2023-04-27T02:04:09;6.00;99.90
15596;DHT22;7898;48.658;9.068;2023-04-27T02:06:36;5.90;99.90
15596;DHT22;7898;48.658;9.068;2023-04-27T02:09:03;5.90;99.90
15596;DHT22;7898;48.658;9.068;2023-04-27T02:11:30;5.90;99.90
15596;DHT22;7898;48.658;9.068;2023-04-27T02:13:57;6.00;99.90
15596;DHT22;7898;48.658;9.068;2023-04-27T02:16:25;6.00;99.90
15596;DHT22;7898;48.658;9.068;2023-04-27T02:18:52;6.00;99.90
15596;DHT22;7898;48.658;9.068;2023-04-27T02:21:19;5.90;99.90
15596;DHT22;7898;48.658;9.068;2023-04-27T02:23:47;5.90;99.90
15596;DHT22;7898;48.658;9.068;2023-04-27T02:26:17;5.90;99.90
15596;DHT22;7898;48.658;9.068;2023-04-27T03:22:39;6.00;99.90
15596;DHT22;7898;48.658;9.068;2023-04-27T03:25:07;6.10;99.90
15596;DHT22;7898;48.658;9.068;2023-04-27T03:27:34;6.10;99.90
15596;DHT22;7898;48.658;9.068;2023-04-27T03:30:00;6.00;99.90
15596;DHT22;7898;48.658;9.068;2023-04-27T03:32:28;5.90;99.90
15596;DHT22;7898;48.658;9.068;2023-04-27T03:34:55;5.90;99.90
15596;DHT22;7898;48.658;9.068;2023-04-27T03:37:22;5.90;99.90
15596;DHT22;7898;48.658;9.068;2023-04-27T03:39:51;5.90;99.90
15596;DHT22;7898;48.658;9.068;2023-04-27T03:42:18;5.90;99.90
15596;DHT22;7898;48.658;9.068;2023-04-27T03:44:45;5.90;99.90
15596;DHT22;7898;48.658;9.068;2023-04-27T03:47:12;5.90;99.90
15596;DHT22;7898;48.658;9.068;2023-04-27T03:49:38;5.80;99.90
15596;DHT22;7898;48.658;9.068;2023-04-27T03:52:05;5.80;99.90
15596;DHT22;7898;48.658;9.068;2023-04-27T03:54:32;5.80;99.90
15596;DHT22;7898;48.658;9.068;2023-04-27T03:57:00;5.80;99.90
15596;DHT22;7898;48.658;9.068;2023-04-27T03:59:28;5.80;99.90
15596;DHT22;7898;48.658;9.068;2023-04-27T04:01:55;5.80;99.90
15596;DHT22;7898;48.658;9.068;2023-04-27T04:04:23;5.80;99.90
15596;DHT22;7898;48.658;9.068;2023-04-27T04:06:50;5.80;99.90
15596;DHT22;7898;48.658;9.068;2023-04-27T04:09:17;5.70;99.90
15596;DHT22;7898;48.658;9.068;2023-04-27T04:11:44;5.70;99.90
15596;DHT22;7898;48.658;9.068;2023-04-27T04:14:12;5.80;99.90
15596;DHT22;7898;48.658;9.068;2023-04-27T04:16:39;5.80;99.90
15596;DHT22;7898;48.658;9.068;2023-04-27T04:19:06;5.70;99.90
15596;DHT22;7898;48.658;9.068;2023-04-27T04:21:32;5.70;99.90
15596;DHT22;7898;48.658;9.068;2023-04-27T04:23:59;5.80;99.90
15596;DHT22;7898;48.658;9.068;2023-04-27T04:26:26;5.80;99.90
15596;DHT22;7898;48.658;9.068;2023-04-27T04:28:53;5.80;99.90
15596;DHT22;7898;48.658;9.068;2023-04-27T04:31:21;5.90;99.90
15596;DHT22;7898;48.658;9.068;2023-04-27T04:33:48;5.90;99.90
15596;DHT22;7898;48.658;9.068;2023-04-27T04:36:16;5.90;99.90
15596;DHT22;7898;48.658;9.068;2023-04-27T04:38:43;5.90;99.90
15596;DHT22;7898;48.658;9.068;2023-04-27T04:41:10;5.90;99.90
15596;DHT22;7898;48.658;9.068;2023-04-27T04:43:37;5.80;99.90
15596;DHT22;7898;48.658;9.068;2023-04-27T04:46:04;5.80;99.90
15596;DHT22;7898;48.658;9.068;2023-04-27T04:48:32;5.90;99.90
15596;DHT22;7898;48.658;9.068;2023-04-27T04:50:59;5.90;99.90
15596;DHT22;7898;48.658;9.068;2023-04-27T04:53:26;5.90;99.90
15596;DHT22;7898;48.658;9.068;2023-04-27T04:55:52;5.90;99.90
15596;DHT22;7898;48.658;9.068;2023-04-27T04:58:19;6.00;99.90
15596;DHT22;7898;48.658;9.068;2023-04-27T05:00:46;6.00;99.90
15596;DHT22;7898;48.658;9.068;2023-04-27T05:03:13;6.10;99.90
15596;DHT22;7898;48.658;9.068;2023-04-27T05:05:41;6.20;99.90
15596;DHT22;7898;48.658;9.068;2023-04-27T05:08:08;6.20;99.90
15596;DHT22;7898;48.658;9.068;2023-04-27T05:10:35;6.20;99.90
15596;DHT22;7898;48.658;9.068;2023-04-27T05:13:02;6.20;99.90
15596;DHT22;7898;48.658;9.068;2023-04-27T05:15:28;6.40;99.90
15596;DHT22;7898;48.658;9.068;2023-04-27T05:17:55;6.40;99.90
15596;DHT22;7898;48.658;9.068;2023-04-27T05:20:22;6.40;99.90
15596;DHT22;7898;48.658;9.068;2023-04-27T05:22:50;6.50;99.90
15596;DHT22;7898;48.658;9.068;2023-04-27T05:25:17;6.60;99.90
15596;DHT22;7898;48.658;9.068;2023-04-27T05:27:44;6.70;99.90
15596;DHT22;7898;48.658;9.068;2023-04-27T05:30:12;6.80;99.90
15596;DHT22;7898;48.658;9.068;2023-04-27T05:32:39;6.80;99.90
15596;DHT22;7898;48.658;9.068;2023-04-27T05:35:06;6.80;99.90
15596;DHT22;7898;48.658;9.068;2023-04-27T05:37:33;6.90;99.90
15596;DHT22;7898;48.658;9.068;2023-04-27T05:40:02;7.10;99.90
15596;DHT22;7898;48.658;9.068;2023-04-27T05:42:29;7.10;99.90
15596;DHT22;7898;48.658;9.068;2023-04-27T05:44:56;7.30;99.90
15596;DHT22;7898;48.658;9.068;2023-04-27T05:47:23;7.40;99.90
15596;DHT22;7898;48.658;9.068;2023-04-27T05:49:50;7.40;99.90
15596;DHT22;7898;48.658;9.068;2023-04-27T05:52:17;7.60;99.90
15596;DHT22;7898;48.658;9.068;2023-04-27T05:54:45;7.70;99.90
15596;DHT22;7898;48.658;9.068;2023-04-27T05:57:14;7.80;99.90
15596;DHT22;7898;48.658;9.068;2023-04-27T05:59:41;7.90;99.90
15596;DHT22;7898;48.658;9.068;2023-04-27T06:02:08;8.10;99.90
15596;DHT22;7898;48.658;9.068;2023-04-27T06:04:35;8.20;99.90
15596;DHT22;7898;48.658;9.068;2023-04-27T06:07:07;8.50;99.90
15596;DHT22;7898;48.658;9.068;2023-04-27T06:09:33;8.70;99.90
15596;DHT22;7898;48.658;9.068;2023-04-27T06:12:01;8.80;99.90
15596;DHT22;7898;48.658;9.068;2023-04-27T06:14:30;8.90;99.90
15596;DHT22;7898;48.658;9.068;2023-04-27T06:16:57;9.10;99.90
15596;DHT22;7898;48.658;9.068;2023-04-27T06:19:24;9.10;99.90
15596;DHT22;7898;48.658;9.068;2023-04-27T06:21:52;9.30;99.90
15596;DHT22;7898;48.658;9.068;2023-04-27T06:24:19;9.50;99.90
15596;DHT22;7898;48.658;9.068;2023-04-27T06:26:46;9.60;99.90
15596;DHT22;7898;48.658;9.068;2023-04-27T06:29:13;9.70;99.90
15596;DHT22;7898;48.658;9.068;2023-04-27T06:31:41;9.80;99.90
15596;DHT22;7898;48.658;9.068;2023-04-27T06:34:08;10.00;99.90
15596;DHT22;7898;48.658;9.068;2023-04-27T06:36:35;10.20;99.90
15596;DHT22;7898;48.658;9.068;2023-04-27T06:39:02;10.30;99.90
15596;DHT22;7898;48.658;9.068;2023-04-27T06:41:29;10.40;99.90
15596;DHT22;7898;48.658;9.068;2023-04-27T06:43:56;10.50;99.90
15596;DHT22;7898;48.658;9.068;2023-04-27T06:46:23;10.60;99.90
15596;DHT22;7898;48.658;9.068;2023-04-27T06:48:51;10.70;99.90
15596;DHT22;7898;48.658;9.068;2023-04-27T06:51:18;10.90;99.90
15596;DHT22;7898;48.658;9.068;2023-04-27T06:53:45;11.20;99.90
15596;DHT22;7898;48.658;9.068;2023-04-27T06:56:12;11.40;99.90
15596;DHT22;7898;48.658;9.068;2023-04-27T06:58:38;11.70;99.90
15596;DHT22;7898;48.658;9.068;2023-04-27T07:01:05;12.20;99.90
15596;DHT22;7898;48.658;9.068;2023-04-27T07:03:33;12.80;99.90
15596;DHT22;7898;48.658;9.068;2023-04-27T07:06:02;13.30;99.90
15596;DHT22;7898;48.658;9.068;2023-04-27T07:08:29;13.40;99.90
15596;DHT22;7898;48.658;9.068;2023-04-27T07:10:56;13.70;99.90
15596;DHT22;7898;48.658;9.068;2023-04-27T07:13:22;13.90;99.90
15596;DHT22;7898;48.658;9.068;2023-04-27T07:15:53;14.00;99.90
15596;DHT22;7898;48.658;9.068;2023-04-27T07:18:22;14.50;99.90
15596;DHT22;7898;48.658;9.068;2023-04-27T07:20:49;14.60;99.90
15596;DHT22;7898;48.658;9.068;2023-04-27T07:23:17;14.90;99.90
15596;DHT22;7898;48.658;9.068;2023-04-27T07:25:44;15.60;99.90
15596;DHT22;7898;48.658;9.068;2023-04-27T07:28:11;16.40;99.90
15596;DHT22;7898;48.658;9.068;2023-04-27T07:30:38;17.10;99.90
15596;DHT22;7898;48.658;9.068;2023-04-27T07:33:05;17.70;99.90
15596;DHT22;7898;48.658;9.068;2023-04-27T07:35:32;18.40;99.90
15596;DHT22;7898;48.658;9.068;2023-04-27T07:37:59;18.50;99.90
15596;DHT22;7898;48.658;9.068;2023-04-27T07:40:29;18.30;99.90
15596;DHT22;7898;48.658;9.068;2023-04-27T07:42:57;18.20;99.90
15596;DHT22;7898;48.658;9.068;2023-04-27T07:45:24;18.20;99.90
15596;DHT22;7898;48.658;9.068;2023-04-27T07:47:56;18.50;99.90
15596;DHT22;7898;48.658;9.068;2023-04-27T07:50:25;18.80;99.90
15596;DHT22;7898;48.658;9.068;2023-04-27T07:52:52;19.10;99.90
15596;DHT22;7898;48.658;9.068;2023-04-27T07:55:20;19.40;99.90
15596;DHT22;7898;48.658;9.068;2023-04-27T07:57:49;19.80;99.90
15596;DHT22;7898;48.658;9.068;2023-04-27T08:00:16;19.90;99.90
15596;DHT22;7898;48.658;9.068;2023-04-27T08:02:44;19.90;99.90
15596;DHT22;7898;48.658;9.068;2023-04-27T08:05:11;20.00;99.90
15596;DHT22;7898;48.658;9.068;2023-04-27T08:07:38;20.00;99.90
15596;DHT22;7898;48.658;9.068;2023-04-27T08:10:08;20.00;99.90
15596;DHT22;7898;48.658;9.068;2023-04-27T08:12:34;20.00;99.90
15596;DHT22;7898;48.658;9.068;2023-04-27T08:15:04;20.00;99.90
15596;DHT22;7898;48.658;9.068;2023-04-27T08:17:31;20.00;99.90
15596;DHT22;7898;48.658;9.068;2023-04-27T08:19:58;20.20;99.90
15596;DHT22;7898;48.658;9.068;2023-04-27T08:22:25;20.00;99.90
15596;DHT22;7898;48.658;9.068;2023-04-27T08:24:52;20.00;99.90
15596;DHT22;7898;48.658;9.068;2023-04-27T08:27:19;20.00;99.90
15596;DHT22;7898;48.658;9.068;2023-04-27T08:29:46;19.80;99.90
15596;DHT22;7898;48.658;9.068;2023-04-27T08:32:15;20.10;99.90
15596;DHT22;7898;48.658;9.068;2023-04-27T08:34:42;20.20;99.90
15596;DHT22;7898;48.658;9.068;2023-04-27T08:37:09;20.10;99.30
15596;DHT22;7898;48.658;9.068;2023-04-27T08:39:36;19.70;99.10
15596;DHT22;7898;48.658;9.068;2023-04-27T08:42:09;19.00;99.00
15596;DHT22;7898;48.658;9.068;2023-04-27T08:44:38;18.40;99.90
15596;DHT22;7898;48.658;9.068;2023-04-27T08:47:05;18.20;99.90
15596;DHT22;7898;48.658;9.068;2023-04-27T08:49:36;18.10;99.90
15596;DHT22;7898;48.658;9.068;2023-04-27T08:52:09;17.90;99.90
15596;DHT22;7898;48.658;9.068;2023-04-27T08:54:36;17.60;99.90
15596;DHT22;7898;48.658;9.068;2023-04-27T08:57:08;17.00;99.90
15596;DHT22;7898;48.658;9.068;2023-04-27T08:59:35;16.60;99.90
15596;DHT22;7898;48.658;9.068;2023-04-27T09:02:03;16.40;99.90
15596;DHT22;7898;48.658;9.068;2023-04-27T09:04:37;16.00;99.90
15596;DHT22;7898;48.658;9.068;2023-04-27T09:07:11;15.70;99.90
15596;DHT22;7898;48.658;9.068;2023-04-27T09:09:38;15.80;99.90
15596;DHT22;7898;48.658;9.068;2023-04-27T09:12:14;16.00;99.90
15596;DHT22;7898;48.658;9.068;2023-04-27T09:14:42;16.50;99.90
15596;DHT22;7898;48.658;9.068;2023-04-27T09:17:09;16.90;99.90
15596;DHT22;7898;48.658;9.068;2023-04-27T09:19:37;17.30;99.90
15596;DHT22;7898;48.658;9.068;2023-04-27T09:22:05;17.70;99.90
15596;DHT22;7898;48.658;9.068;2023-04-27T09:24:33;17.80;99.90
15596;DHT22;7898;48.658;9.068;2023-04-27T09:27:00;18.20;99.90
15596;DHT22;7898;48.658;9.068;2023-04-27T09:29:34;18.60;99.90
15596;DHT22;7898;48.658;9.068;2023-04-27T09:32:12;18.90;99.90
15596;DHT22;7898;48.658;9.068;2023-04-27T09:34:41;19.10;98.60
15596;DHT22;7898;48.658;9.068;2023-04-27T09:37:09;19.40;99.90
15596;DHT22;7898;48.658;9.068;2023-04-27T09:39:36;19.60;98.80
15596;DHT22;7898;48.658;9.068;2023-04-27T09:42:03;19.40;98.90
15596;DHT22;7898;48.658;9.068;2023-04-27T09:44:30;19.30;98.60
15596;DHT22;7898;48.658;9.068;2023-04-27T09:46:58;19.30;99.90
15596;DHT22;7898;48.658;9.068;2023-04-27T09:49:26;19.60;99.00
15596;DHT22;7898;48.658;9.068;2023-04-27T09:51:55;19.90;99.20
15596;DHT22;7898;48.658;9.068;2023-04-27T09:54:26;20.20;98.10
15596;DHT22;7898;48.658;9.068;2023-04-27T09:57:04;20.30;98.70
15596;DHT22;7898;48.658;9.068;2023-04-27T10:02:41;19.70;96.80
15596;DHT22;7898;48.658;9.068;2023-04-27T10:05:27;19.30;96.50
15596;DHT22;7898;48.658;9.068;2023-04-27T10:07:58;19.10;98.90
15596;DHT22;7898;48.658;9.068;2023-04-27T10:10:25;18.80;96.90
15596;DHT22;7898;48.658;9.068;2023-04-27T10:12:56;18.70;97.90
15596;DHT22;7898;48.658;9.068;2023-04-27T10:15:27;18.80;98.10
15596;DHT22;7898;48.658;9.068;2023-04-27T10:17:55;19.00;98.80
15596;DHT22;7898;48.658;9.068;2023-04-27T10:20:30;19.40;98.40
15596;DHT22;7898;48.658;9.068;2023-04-27T10:22:59;19.70;97.30
15596;DHT22;7898;48.658;9.068;2023-04-27T10:25:27;19.50;97.90
15596;DHT22;7898;48.658;9.068;2023-04-27T10:27:57;19.10;97.50
15596;DHT22;7898;48.658;9.068;2023-04-27T10:30:30;19.20;97.90
15596;DHT22;7898;48.658;9.068;2023-04-27T10:32:58;18.90;98.70
15596;DHT22;7898;48.658;9.068;2023-04-27T10:35:33;18.70;98.50
15596;DHT22;7898;48.658;9.068;2023-04-27T10:38:06;18.60;98.50
15596;DHT22;7898;48.658;9.068;2023-04-27T10:40:34;18.50;99.20
15596;DHT22;7898;48.658;9.068;2023-04-27T10:43:08;18.30;98.80
15596;DHT22;7898;48.658;9.068;2023-04-27T10:45:36;18.50;99.20
15596;DHT22;7898;48.658;9.068;2023-04-27T10:48:03;18.60;98.20
15596;DHT22;7898;48.658;9.068;2023-04-27T10:50:30;18.60;98.70
15596;DHT22;7898;48.658;9.068;2023-04-27T10:53:01;18.30;99.00
15596;DHT22;7898;48.658;9.068;2023-04-27T10:55:30;17.80;98.90
15596;DHT22;7898;48.658;9.068;2023-04-27T10:57:57;17.40;99.50
15596;DHT22;7898;48.658;9.068;2023-04-27T11:00:26;17.60;99.90
15596;DHT22;7898;48.658;9.068;2023-04-27T11:02:54;17.50;99.90
15596;DHT22;7898;48.658;9.068;2023-04-27T11:05:25;17.50;99.60
15596;DHT22;7898;48.658;9.068;2023-04-27T11:08:04;17.40;99.20
15596;DHT22;7898;48.658;9.068;2023-04-27T11:10:32;17.40;99.90
15596;DHT22;7898;48.658;9.068;2023-04-27T11:13:08;17.30;99.90
15596;DHT22;7898;48.658;9.068;2023-04-27T11:15:45;17.30;99.90
15596;DHT22;7898;48.658;9.068;2023-04-27T11:18:13;17.40;99.90
15596;DHT22;7898;48.658;9.068;2023-04-27T11:20:42;17.50;99.90
15596;DHT22;7898;48.658;9.068;2023-04-27T11:23:08;17.60;99.90
15596;DHT22;7898;48.658;9.068;2023-04-27T11:25:37;17.60;99.90
15596;DHT22;7898;48.658;9.068;2023-04-27T11:28:04;17.80;99.20
15596;DHT22;7898;48.658;9.068;2023-04-27T11:30:42;17.90;98.70
15596;DHT22;7898;48.658;9.068;2023-04-27T11:33:09;18.20;99.90
15596;DHT22;7898;48.658;9.068;2023-04-27T11:35:36;18.80;99.90
15596;DHT22;7898;48.658;9.068;2023-04-27T11:38:04;18.90;98.60
15596;DHT22;7898;48.658;9.068;2023-04-27T11:40:31;19.20;99.10
15596;DHT22;7898;48.658;9.068;2023-04-27T11:43:01;19.50;99.90
15596;DHT22;7898;48.658;9.068;2023-04-27T11:45:29;19.60;99.20
15596;DHT22;7898;48.658;9.068;2023-04-27T11:47:57;19.90;99.80
15596;DHT22;7898;48.658;9.068;2023-04-27T11:50:24;19.90;99.40
15596;DHT22;7898;48.658;9.068;2023-04-27T11:52:51;20.10;99.60
15596;DHT22;7898;48.658;9.068;2023-04-27T11:55:20;20.50;98.40
15596;DHT22;7898;48.658;9.068;2023-04-27T11:57:46;20.70;97.90
15596;DHT22;7898;48.658;9.068;2023-04-27T12:00:16;21.00;96.10
15596;DHT22;7898;48.658;9.068;2023-04-27T12:02:43;21.00;96.10
15596;DHT22;7898;48.658;9.068;2023-04-27T12:05:10;20.90;95.30
15596;DHT22;7898;48.658;9.068;2023-04-27T12:07:37;20.60;95.90
15596;DHT22;7898;48.658;9.068;2023-04-27T12:10:05;20.30;96.30
15596;DHT22;7898;48.658;9.068;2023-04-27T12:12:33;20.10;95.90
15596;DHT22;7898;48.658;9.068;2023-04-27T12:15:00;20.30;97.20
15596;DHT22;7898;48.658;9.068;2023-04-27T12:17:29;20.50;98.00
15596;DHT22;7898;48.658;9.068;2023-04-27T12:19:56;20.30;97.80
15596;DHT22;7898;48.658;9.068;2023-04-27T12:22:22;20.20;97.30
15596;DHT22;7898;48.658;9.068;2023-04-27T12:24:50;20.10;98.40
15596;DHT22;7898;48.658;9.068;2023-04-27T12:27:17;19.90;98.00
15596;DHT22;7898;48.658;9.068;2023-04-27T12:29:43;19.90;97.90
15596;DHT22;7898;48.658;9.068;2023-04-27T12:32:10;20.00;98.90
15596;DHT22;7898;48.658;9.068;2023-04-27T12:34:39;20.00;98.40
15596;DHT22;7898;48.658;9.068;2023-04-27T12:37:07;20.00;97.10
15596;DHT22;7898;48.658;9.068;2023-04-27T12:39:34;19.70;96.40
15596;DHT22;7898;48.658;9.068;2023-04-27T12:42:01;19.30;97.20
15596;DHT22;7898;48.658;9.068;2023-04-27T12:44:28;19.20;99.10
15596;DHT22;7898;48.658;9.068;2023-04-27T12:46:55;19.00;97.50
15596;DHT22;7898;48.658;9.068;2023-04-27T12:49:22;19.00;97.60
15596;DHT22;7898;48.658;9.068;2023-04-27T12:51:51;18.90;97.00
15596;DHT22;7898;48.658;9.068;2023-04-27T12:54:18;18.80;97.60
15596;DHT22;7898;48.658;9.068;2023-04-27T12:56:45;18.90;97.80
15596;DHT22;7898;48.658;9.068;2023-04-27T12:59:12;18.90;97.50
15596;DHT22;7898;48.658;9.068;2023-04-27T13:01:41;19.00;97.40
15596;DHT22;7898;48.658;9.068;2023-04-27T13:04:08;18.90;96.90
15596;DHT22;7898;48.658;9.068;2023-04-27T13:06:35;19.00;97.70
15596;DHT22;7898;48.658;9.068;2023-04-27T13:09:04;19.40;97.60
15596;DHT22;7898;48.658;9.068;2023-04-27T13:11:31;20.00;97.30
15596;DHT22;7898;48.658;9.068;2023-04-27T13:13:58;20.50;96.30
15596;DHT22;7898;48.658;9.068;2023-04-27T13:16:26;20.60;96.40
15596;DHT22;7898;48.658;9.068;2023-04-27T13:18:53;20.60;95.30
15596;DHT22;7898;48.658;9.068;2023-04-27T13:21:20;20.60;96.90
15596;DHT22;7898;48.658;9.068;2023-04-27T13:23:47;20.40;94.90
15596;DHT22;7898;48.658;9.068;2023-04-27T13:26:17;20.20;96.20
15596;DHT22;7898;48.658;9.068;2023-04-27T13:28:43;20.20;96.60
15596;DHT22;7898;48.658;9.068;2023-04-27T13:31:10;20.10;96.80
15596;DHT22;7898;48.658;9.068;2023-04-27T13:33:38;20.00;96.30
15596;DHT22;7898;48.658;9.068;2023-04-27T13:36:06;19.90;96.70
15596;DHT22;7898;48.658;9.068;2023-04-27T13:38:33;20.00;96.80
15596;DHT22;7898;48.658;9.068;2023-04-27T13:41:00;19.80;97.50
15596;DHT22;7898;48.658;9.068;2023-04-27T13:43:28;19.50;97.40
15596;DHT22;7898;48.658;9.068;2023-04-27T13:45:56;19.50;97.40
15596;DHT22;7898;48.658;9.068;2023-04-27T13:48:23;19.60;99.90
15596;DHT22;7898;48.658;9.068;2023-04-27T13:50:50;19.50;97.60
15596;DHT22;7898;48.658;9.068;2023-04-27T13:53:17;19.60;97.60
15596;DHT22;7898;48.658;9.068;2023-04-27T13:55:44;19.90;97.80
15596;DHT22;7898;48.658;9.068;2023-04-27T13:58:11;20.10;98.20
15596;DHT22;7898;48.658;9.068;2023-04-27T14:00:40;20.10;96.50
15596;DHT22;7898;48.658;9.068;2023-04-27T14:03:07;19.90;96.50
15596;DHT22;7898;48.658;9.068;2023-04-27T14:05:33;19.50;96.50
15596;DHT22;7898;48.658;9.068;2023-04-27T14:08:00;19.30;96.90
15596;DHT22;7898;48.658;9.068;2023-04-27T14:10:27;19.30;97.90
15596;DHT22;7898;48.658;9.068;2023-04-27T14:12:55;19.50;98.40
15596;DHT22;7898;48.658;9.068;2023-04-27T14:15:22;19.80;97.10
15596;DHT22;7898;48.658;9.068;2023-04-27T14:17:50;20.20;97.20
15596;DHT22;7898;48.658;9.068;2023-04-27T14:20:17;20.70;96.80
15596;DHT22;7898;48.658;9.068;2023-04-27T14:22:44;21.10;96.00
15596;DHT22;7898;48.658;9.068;2023-04-27T14:25:11;21.30;95.50
15596;DHT22;7898;48.658;9.068;2023-04-27T14:27:38;21.40;95.20
15596;DHT22;7898;48.658;9.068;2023-04-27T14:30:06;21.40;95.70
15596;DHT22;7898;48.658;9.068;2023-04-27T14:32:33;22.10;94.80
15596;DHT22;7898;48.658;9.068;2023-04-27T14:35:02;22.60;94.90
15596;DHT22;7898;48.658;9.068;2023-04-27T14:37:29;23.20;92.80
15596;DHT22;7898;48.658;9.068;2023-04-27T14:39:56;23.50;93.90
15596;DHT22;7898;48.658;9.068;2023-04-27T14:42:23;23.80;92.30
15596;DHT22;7898;48.658;9.068;2023-04-27T14:44:50;24.00;92.20
15596;DHT22;7898;48.658;9.068;2023-04-27T14:47:17;23.60;92.30
15596;DHT22;7898;48.658;9.068;2023-04-27T14:49:44;22.90;92.70
15596;DHT22;7898;48.658;9.068;2023-04-27T14:52:12;22.00;93.30
15596;DHT22;7898;48.658;9.068;2023-04-27T14:54:39;21.20;94.00
15596;DHT22;7898;48.658;9.068;2023-04-27T14:57:06;20.50;95.20
15596;DHT22;7898;48.658;9.068;2023-04-27T14:59:33;20.10;95.80
15596;DHT22;7898;48.658;9.068;2023-04-27T15:02:00;20.10;97.00
15596;DHT22;7898;48.658;9.068;2023-04-27T15:04:27;20.10;96.10
15596;DHT22;7898;48.658;9.068;2023-04-27T15:06:54;20.10;97.00
15596;DHT22;7898;48.658;9.068;2023-04-27T15:09:22;20.60;96.80
15596;DHT22;7898;48.658;9.068;2023-04-27T15:11:49;20.70;95.60
15596;DHT22;7898;48.658;9.068;2023-04-27T15:14:16;20.60;95.70
15596;DHT22;7898;48.658;9.068;2023-04-27T15:16:43;21.30;95.50
15596;DHT22;7898;48.658;9.068;2023-04-27T15:19:10;22.20;95.50
15596;DHT22;7898;48.658;9.068;2023-04-27T15:21:37;22.90;93.50
15596;DHT22;7898;48.658;9.068;2023-04-27T15:24:04;22.90;94.20
15596;DHT22;7898;48.658;9.068;2023-04-27T15:26:33;22.40;93.90
15596;DHT22;7898;48.658;9.068;2023-04-27T15:29:00;22.00;94.20
15596;DHT22;7898;48.658;9.068;2023-04-27T15:31:26;21.60;95.50
15596;DHT22;7898;48.658;9.068;2023-04-27T15:33:53;21.40;96.70
15596;DHT22;7898;48.658;9.068;2023-04-27T15:36:20;21.00;96.00
15596;DHT22;7898;48.658;9.068;2023-04-27T15:38:51;21.00;97.20
15596;DHT22;7898;48.658;9.068;2023-04-27T15:41:18;21.20;96.80
15596;DHT22;7898;48.658;9.068;2023-04-27T15:43:46;21.40;96.10
15596;DHT22;7898;48.658;9.068;2023-04-27T15:46:13;21.90;95.90
15596;DHT22;7898;48.658;9.068;2023-04-27T15:48:41;22.40;95.10
15596;DHT22;7898;48.658;9.068;2023-04-27T15:51:08;22.40;95.50
15596;DHT22;7898;48.658;9.068;2023-04-27T15:53:34;22.30;95.00
15596;DHT22;7898;48.658;9.068;2023-04-27T15:56:01;22.40;95.60
15596;DHT22;7898;48.658;9.068;2023-04-27T15:58:28;22.80;95.70
15596;DHT22;7898;48.658;9.068;2023-04-27T16:00:57;23.30;92.90
15596;DHT22;7898;48.658;9.068;2023-04-27T16:03:24;23.30;94.20
15596;DHT22;7898;48.658;9.068;2023-04-27T16:05:51;23.50;94.50
15596;DHT22;7898;48.658;9.068;2023-04-27T16:08:18;23.70;93.20
15596;DHT22;7898;48.658;9.068;2023-04-27T16:10:45;24.50;93.20
15596;DHT22;7898;48.658;9.068;2023-04-27T16:13:12;25.30;92.50
15596;DHT22;7898;48.658;9.068;2023-04-27T16:15:38;26.20;90.30
15596;DHT22;7898;48.658;9.068;2023-04-27T16:18:07;25.90;90.00
15596;DHT22;7898;48.658;9.068;2023-04-27T16:20:33;25.80;89.60
15596;DHT22;7898;48.658;9.068;2023-04-27T16:23:01;25.40;89.90
15596;DHT22;7898;48.658;9.068;2023-04-27T16:25:27;25.70;89.90
15596;DHT22;7898;48.658;9.068;2023-04-27T16:27:57;26.00;87.70
15596;DHT22;7898;48.658;9.068;2023-04-27T16:30:24;25.80;91.10
15596;DHT22;7898;48.658;9.068;2023-04-27T16:32:52;25.60;89.20
15596;DHT22;7898;48.658;9.068;2023-04-27T16:35:20;26.00;88.50
15596;DHT22;7898;48.658;9.068;2023-04-27T16:37:47;26.30;87.80
15596;DHT22;7898;48.658;9.068;2023-04-27T16:40:14;26.70;88.00
15596;DHT22;7898;48.658;9.068;2023-04-27T16:42:41;26.70;85.00
15596;DHT22;7898;48.658;9.068;2023-04-27T16:45:09;26.30;86.50
15596;DHT22;7898;48.658;9.068;2023-04-27T16:47:36;25.90;85.70
15596;DHT22;7898;48.658;9.068;2023-04-27T16:50:05;25.00;87.10
15596;DHT22;7898;48.658;9.068;2023-04-27T16:52:33;24.10;89.50